sensor_id;sensor_type;location;lat;lon;timestamp;pressure;altitude;pressure_sealevel;temperature;humidity
15193;BME280;7697;51.630;7.484;2024-03-08T00:03:35;-17215.44;;;4.16;84.75
15193;BME280;7697;51.630;7.484;2024-03-08T00:08:37;-17212.09;;;4.06;84.88
15193;BME280;7697;51.630;7.484;2024-03-08T00:13:38;-17211.75;;;4.05;85.38
15193;BME280;7697;51.630;7.484;2024-03-08T00:18:41;-17209.41;;;3.98;85.69
15193;BME280;7697;51.630;7.484;2024-03-08T00:23:43;-17205.38;;;3.86;85.96
15193;BME280;7697;51.630;7.484;2024-03-08T00:28:45;-17203.72;;;3.81;86.08
15193;BME280;7697;51.630;7.484;2024-03-08T00:33:48;-17204.22;;;3.82;86.37
15193;BME280;7697;51.630;7.484;2024-03-08T00:38:50;-17207.22;;;3.91;86.28
15193;BME280;7697;51.630;7.484;2024-03-08T00:43:52;-17202.88;;;3.78;86.88
15193;BME280;7697;51.630;7.484;2024-03-08T00:48:55;-17200.53;;;3.71;86.77
15193;BME280;7697;51.630;7.484;2024-03-08T00:53:56;-17198.34;;;3.64;86.90
15193;BME280;7697;51.630;7.484;2024-03-08T00:58:58;-17195.66;;;3.56;86.56
15193;BME280;7697;51.630;7.484;2024-03-08T01:04:02;-17194.81;;;3.54;87.05
15193;BME280;7697;51.630;7.484;2024-03-08T01:09:03;-17193.31;;;3.49;87.34
15193;BME280;7697;51.630;7.484;2024-03-08T01:14:07;-17195.31;;;3.55;87.50
15193;BME280;7697;51.630;7.484;2024-03-08T01:19:10;-17194.16;;;3.52;87.59
15193;BME280;7697;51.630;7.484;2024-03-08T01:24:12;-17192.97;;;3.48;87.09
15193;BME280;7697;51.630;7.484;2024-03-08T01:29:13;-17189.63;;;3.38;87.49
15193;BME280;7697;51.630;7.484;2024-03-08T01:34:17;-17187.94;;;3.33;87.78
15193;BME280;7697;51.630;7.484;2024-03-08T01:39:18;-17186.13;;;3.27;87.78
15193;BME280;7697;51.630;7.484;2024-03-08T01:44:22;-17185.28;;;3.25;88.36
15193;BME280;7697;51.630;7.484;2024-03-08T01:49:26;-17182.59;;;3.17;88.85
15193;BME280;7697;51.630;7.484;2024-03-08T01:54:29;-17180.25;;;3.10;88.61
15193;BME280;7697;51.630;7.484;2024-03-08T01:59:31;-17179.06;;;3.06;89.11
15193;BME280;7697;51.630;7.484;2024-03-08T02:04:35;-17177.56;;;3.01;88.82
15193;BME280;7697;51.630;7.484;2024-03-08T02:09:37;-17176.22;;;2.97;88.79
15193;BME280;7697;51.630;7.484;2024-03-08T02:14:39;-17173.38;;;2.89;89.20
15193;BME280;7697;51.630;7.484;2024-03-08T02:19:42;-17173.03;;;2.88;89.24
15193;BME280;7697;51.630;7.484;2024-03-08T02:24:45;-17173.88;;;2.90;89.26
15193;BME280;7697;51.630;7.484;2024-03-08T02:29:48;-17171.19;;;2.82;89.67
15193;BME280;7697;51.630;7.484;2024-03-08T02:34:50;-17172.03;;;2.85;90.01
15193;BME280;7697;51.630;7.484;2024-03-08T02:39:53;-17171.88;;;2.84;90.04
15193;BME280;7697;51.630;7.484;2024-03-08T02:44:55;-17171.19;;;2.82;90.11
15193;BME280;7697;51.630;7.484;2024-03-08T02:49:57;-17170.03;;;2.79;90.11
15193;BME280;7697;51.630;7.484;2024-03-08T02:55:00;-17168.69;;;2.75;90.16
15193;BME280;7697;51.630;7.484;2024-03-08T03:00:02;-17168.19;;;2.73;90.35
15193;BME280;7697;51.630;7.484;2024-03-08T03:05:05;-17170.34;;;2.80;90.40
15193;BME280;7697;51.630;7.484;2024-03-08T03:10:09;-17169.84;;;2.78;90.52
15193;BME280;7697;51.630;7.484;2024-03-08T03:15:12;-17167.84;;;2.72;89.81
15193;BME280;7697;51.630;7.484;2024-03-08T03:20:15;-17166.34;;;2.68;90.17
15193;BME280;7697;51.630;7.484;2024-03-08T03:25:24;-17164.50;;;2.62;90.17
15193;BME280;7697;51.630;7.484;2024-03-08T03:30:29;-17164.16;;;2.61;90.29
15193;BME280;7697;51.630;7.484;2024-03-08T03:35:33;-17164.31;;;2.61;90.79
15193;BME280;7697;51.630;7.484;2024-03-08T03:40:38;-17162.47;;;2.56;91.01
15193;BME280;7697;51.630;7.484;2024-03-08T03:45:40;-17162.47;;;2.56;90.63
15193;BME280;7697;51.630;7.484;2024-03-08T03:50:42;-17161.97;;;2.54;91.32
15193;BME280;7697;51.630;7.484;2024-03-08T03:55:45;-17161.81;;;2.54;91.04
15193;BME280;7697;51.630;7.484;2024-03-08T04:00:47;-17161.81;;;2.54;91.50
15193;BME280;7697;51.630;7.484;2024-03-08T04:05:49;-17158.97;;;2.45;91.87
15193;BME280;7697;51.630;7.484;2024-03-08T04:10:52;-17156.78;;;2.39;91.46
15193;BME280;7697;51.630;7.484;2024-03-08T04:15:54;-17155.94;;;2.36;91.44
15193;BME280;7697;51.630;7.484;2024-03-08T04:20:56;-17156.44;;;2.38;92.10
15193;BME280;7697;51.630;7.484;2024-03-08T04:25:59;-17155.44;;;2.35;92.25
15193;BME280;7697;51.630;7.484;2024-03-08T04:31:01;-17154.78;;;2.33;92.19
15193;BME280;7697;51.630;7.484;2024-03-08T04:36:03;-17155.28;;;2.34;91.77
15193;BME280;7697;51.630;7.484;2024-03-08T04:41:06;-17154.44;;;2.32;92.38
15193;BME280;7697;51.630;7.484;2024-03-08T04:46:08;-17151.75;;;2.23;92.14
15193;BME280;7697;51.630;7.484;2024-03-08T04:51:10;-17151.09;;;2.21;92.26
15193;BME280;7697;51.630;7.484;2024-03-08T04:56:13;-17150.41;;;2.19;92.37
15193;BME280;7697;51.630;7.484;2024-03-08T05:01:15;-17151.59;;;2.23;92.28
15193;BME280;7697;51.630;7.484;2024-03-08T05:06:17;-17151.44;;;2.22;92.71
15193;BME280;7697;51.630;7.484;2024-03-08T05:11:22;-17150.25;;;2.19;92.11
15193;BME280;7697;51.630;7.484;2024-03-08T05:16:24;-17148.06;;;2.12;92.62
15193;BME280;7697;51.630;7.484;2024-03-08T05:21:26;-17147.75;;;2.11;92.53
15193;BME280;7697;51.630;7.484;2024-03-08T05:26:30;-17146.06;;;2.06;92.57
15193;BME280;7697;51.630;7.484;2024-03-08T05:31:38;-17146.22;;;2.07;92.77
15193;BME280;7697;51.630;7.484;2024-03-08T05:36:44;-17144.72;;;2.02;92.84
15193;BME280;7697;51.630;7.484;2024-03-08T05:41:50;-17143.72;;;1.99;93.56
15193;BME280;7697;51.630;7.484;2024-03-08T05:46:56;-17141.38;;;1.92;93.69
15193;BME280;7697;51.630;7.484;2024-03-08T05:51:58;-17142.03;;;1.94;93.55
15193;BME280;7697;51.630;7.484;2024-03-08T05:57:04;-17141.72;;;1.93;93.30
15193;BME280;7697;51.630;7.484;2024-03-08T06:02:06;-17140.03;;;1.88;93.54
15193;BME280;7697;51.630;7.484;2024-03-08T06:07:08;-17138.53;;;1.83;93.27
15193;BME280;7697;51.630;7.484;2024-03-08T06:12:14;-17138.19;;;1.82;92.91
15193;BME280;7697;51.630;7.484;2024-03-08T06:17:19;-17139.03;;;1.85;93.80
15193;BME280;7697;51.630;7.484;2024-03-08T06:22:25;-17139.19;;;1.85;93.48
15193;BME280;7697;51.630;7.484;2024-03-08T06:27:28;-17138.34;;;1.83;93.99
15193;BME280;7697;51.630;7.484;2024-03-08T06:32:34;-17138.84;;;1.84;94.04
15193;BME280;7697;51.630;7.484;2024-03-08T06:37:36;-17140.03;;;1.88;94.09
15193;BME280;7697;51.630;7.484;2024-03-08T06:42:39;-17139.53;;;1.86;93.89
15193;BME280;7697;51.630;7.484;2024-03-08T06:47:41;-17140.03;;;1.88;93.67
15193;BME280;7697;51.630;7.484;2024-03-08T06:52:43;-17143.03;;;1.97;94.08
15193;BME280;7697;51.630;7.484;2024-03-08T06:57:49;-17147.75;;;2.11;94.02
15193;BME280;7697;51.630;7.484;2024-03-08T07:02:51;-17151.09;;;2.21;93.38
15193;BME280;7697;51.630;7.484;2024-03-08T07:07:54;-17156.44;;;2.38;92.93
15193;BME280;7697;51.630;7.484;2024-03-08T07:12:57;-17159.47;;;2.47;92.76
15193;BME280;7697;51.630;7.484;2024-03-08T07:18:01;-17163.81;;;2.60;93.03
15193;BME280;7697;51.630;7.484;2024-03-08T07:23:03;-17168.84;;;2.75;91.93
15193;BME280;7697;51.630;7.484;2024-03-08T07:28:06;-17173.22;;;2.88;91.69
15193;BME280;7697;51.630;7.484;2024-03-08T07:33:08;-17181.25;;;3.13;91.71
15193;BME280;7697;51.630;7.484;2024-03-08T07:38:12;-17187.44;;;3.31;91.08
15193;BME280;7697;51.630;7.484;2024-03-08T07:43:15;-17195.66;;;3.56;90.90
15193;BME280;7697;51.630;7.484;2024-03-08T07:48:16;-17202.69;;;3.77;89.41
15193;BME280;7697;51.630;7.484;2024-03-08T07:53:18;-17208.56;;;3.95;89.36
15193;BME280;7697;51.630;7.484;2024-03-08T07:58:21;-17215.78;;;4.17;88.16
15193;BME280;7697;51.630;7.484;2024-03-08T08:03:24;-17222.66;;;4.38;88.00
15193;BME280;7697;51.630;7.484;2024-03-08T08:08:25;-17229.53;;;4.59;87.22
15193;BME280;7697;51.630;7.484;2024-03-08T08:13:28;-17233.88;;;4.72;85.86
15193;BME280;7697;51.630;7.484;2024-03-08T08:18:32;-17243.94;;;5.02;85.07
15193;BME280;7697;51.630;7.484;2024-03-08T08:23:35;-17249.31;;;5.18;84.36
15193;BME280;7697;51.630;7.484;2024-03-08T08:28:38;-17259.03;;;5.48;83.48
15193;BME280;7697;51.630;7.484;2024-03-08T08:33:41;-17268.06;;;5.75;83.23
15193;BME280;7697;51.630;7.484;2024-03-08T08:38:44;-17277.63;;;6.04;82.79
15193;BME280;7697;51.630;7.484;2024-03-08T08:43:47;-17280.81;;;6.14;81.53
15193;BME280;7697;51.630;7.484;2024-03-08T08:48:49;-17289.88;;;6.41;81.30
15193;BME280;7697;51.630;7.484;2024-03-08T08:53:51;-17300.78;;;6.74;79.62
15193;BME280;7697;51.630;7.484;2024-03-08T08:58:54;-17305.81;;;6.89;79.76
15193;BME280;7697;51.630;7.484;2024-03-08T09:03:56;-17318.22;;;7.27;79.29
15193;BME280;7697;51.630;7.484;2024-03-08T09:08:57;-17325.09;;;7.47;77.08
15193;BME280;7697;51.630;7.484;2024-03-08T09:14:00;-17330.97;;;7.65;77.72
15193;BME280;7697;51.630;7.484;2024-03-08T09:19:03;-17338.00;;;7.86;76.27
15193;BME280;7697;51.630;7.484;2024-03-08T09:24:06;-17349.06;;;8.20;76.01
15193;BME280;7697;51.630;7.484;2024-03-08T09:29:09;-17352.94;;;8.32;74.97
15193;BME280;7697;51.630;7.484;2024-03-08T09:34:11;-17362.31;;;8.60;74.31
15193;BME280;7697;51.630;7.484;2024-03-08T09:39:13;-17375.91;;;9.01;73.23
15193;BME280;7697;51.630;7.484;2024-03-08T09:44:18;-17386.16;;;9.32;72.52
15193;BME280;7697;51.630;7.484;2024-03-08T09:49:21;-17392.53;;;9.51;71.68
15193;BME280;7697;51.630;7.484;2024-03-08T09:54:23;-17400.75;;;9.76;70.80
15193;BME280;7697;51.630;7.484;2024-03-08T09:59:28;-17408.63;;;10.00;70.81
15193;BME280;7697;51.630;7.484;2024-03-08T10:04:48;-17417.53;;;10.27;69.74
15193;BME280;7697;51.630;7.484;2024-03-08T10:09:52;-17419.03;;;10.31;67.38
15193;BME280;7697;51.630;7.484;2024-03-08T10:14:56;-17423.22;;;10.44;68.25
15193;BME280;7697;51.630;7.484;2024-03-08T10:19:59;-17428.75;;;10.61;68.11
15193;BME280;7697;51.630;7.484;2024-03-08T10:25:01;-17430.94;;;10.67;66.06
15193;BME280;7697;51.630;7.484;2024-03-08T10:30:06;-17438.00;;;10.88;66.34
15193;BME280;7697;51.630;7.484;2024-03-08T10:35:12;-17436.31;;;10.83;65.41
15193;BME280;7697;51.630;7.484;2024-03-08T10:40:16;-17440.66;;;10.97;64.79
15193;BME280;7697;51.630;7.484;2024-03-08T10:45:34;-17446.88;;;11.15;63.99
15193;BME280;7697;51.630;7.484;2024-03-08T10:50:37;-17455.59;;;11.42;64.68
15193;BME280;7697;51.630;7.484;2024-03-08T10:55:40;-17468.03;;;11.79;63.52
15193;BME280;7697;51.630;7.484;2024-03-08T11:00:43;-17470.72;;;11.87;61.93
15193;BME280;7697;51.630;7.484;2024-03-08T11:05:45;-17476.06;;;12.03;62.23
15193;BME280;7697;51.630;7.484;2024-03-08T11:10:49;-17489.34;;;12.44;61.82
15193;BME280;7697;51.630;7.484;2024-03-08T11:15:56;-17493.84;;;12.57;60.05
15193;BME280;7697;51.630;7.484;2024-03-08T11:20:58;-17496.88;;;12.66;59.21
15193;BME280;7697;51.630;7.484;2024-03-08T11:26:00;-17500.91;;;12.78;59.95
15193;BME280;7697;51.630;7.484;2024-03-08T11:31:24;-17505.44;;;12.92;59.07
15193;BME280;7697;51.630;7.484;2024-03-08T11:36:26;-17508.63;;;13.02;57.95
15193;BME280;7697;51.630;7.484;2024-03-08T11:41:30;-17510.28;;;13.07;59.10
15193;BME280;7697;51.630;7.484;2024-03-08T11:46:33;-17519.53;;;13.35;58.57
15193;BME280;7697;51.630;7.484;2024-03-08T11:51:35;-17527.75;;;13.60;58.24
15193;BME280;7697;51.630;7.484;2024-03-08T11:56:37;-17528.41;;;13.62;57.36
15193;BME280;7697;51.630;7.484;2024-03-08T12:01:40;-17533.97;;;13.78;57.52
15193;BME280;7697;51.630;7.484;2024-03-08T12:06:42;-17534.97;;;13.81;55.75
15193;BME280;7697;51.630;7.484;2024-03-08T12:11:48;-17533.97;;;13.78;56.65
15193;BME280;7697;51.630;7.484;2024-03-08T12:16:52;-17534.97;;;13.81;54.83
15193;BME280;7697;51.630;7.484;2024-03-08T12:21:54;-17536.66;;;13.86;53.26
15193;BME280;7697;51.630;7.484;2024-03-08T12:26:56;-17535.97;;;13.84;52.98
15193;BME280;7697;51.630;7.484;2024-03-08T12:31:59;-17535.63;;;13.83;53.07
15193;BME280;7697;51.630;7.484;2024-03-08T12:37:02;-17529.94;;;13.66;52.84
15193;BME280;7697;51.630;7.484;2024-03-08T12:42:07;-17532.78;;;13.75;52.73
15193;BME280;7697;51.630;7.484;2024-03-08T12:47:10;-17536.81;;;13.87;53.10
15193;BME280;7697;51.630;7.484;2024-03-08T12:52:12;-17536.47;;;13.86;52.72
15193;BME280;7697;51.630;7.484;2024-03-08T12:57:14;-17534.63;;;13.80;51.85
15193;BME280;7697;51.630;7.484;2024-03-08T13:02:18;-17531.78;;;13.72;52.90
15193;BME280;7697;51.630;7.484;2024-03-08T13:07:21;-17529.09;;;13.64;53.24
15193;BME280;7697;51.630;7.484;2024-03-08T13:12:24;-17533.47;;;13.77;53.50
15193;BME280;7697;51.630;7.484;2024-03-08T13:17:27;-17534.13;;;13.79;52.35
15193;BME280;7697;51.630;7.484;2024-03-08T13:22:29;-17533.63;;;13.77;52.03
15193;BME280;7697;51.630;7.484;2024-03-08T13:27:31;-17533.28;;;13.76;54.09
15193;BME280;7697;51.630;7.484;2024-03-08T13:32:34;-17540.00;;;13.97;54.00
15193;BME280;7697;51.630;7.484;2024-03-08T13:37:36;-17538.31;;;13.92;53.48
15193;BME280;7697;51.630;7.484;2024-03-08T13:42:37;-17532.97;;;13.75;53.01
15193;BME280;7697;51.630;7.484;2024-03-08T13:47:41;-17520.53;;;13.38;54.05
15193;BME280;7697;51.630;7.484;2024-03-08T13:52:43;-17521.22;;;13.40;54.38
15193;BME280;7697;51.630;7.484;2024-03-08T13:57:45;-17524.22;;;13.49;55.15
15193;BME280;7697;51.630;7.484;2024-03-08T14:02:48;-17534.28;;;13.79;54.02
15193;BME280;7697;51.630;7.484;2024-03-08T14:07:50;-17521.72;;;13.41;55.20
15193;BME280;7697;51.630;7.484;2024-03-08T14:12:54;-17520.53;;;13.38;54.94
15193;BME280;7697;51.630;7.484;2024-03-08T14:17:57;-17522.56;;;13.44;56.20
15193;BME280;7697;51.630;7.484;2024-03-08T14:22:59;-17522.56;;;13.44;54.94
15193;BME280;7697;51.630;7.484;2024-03-08T14:28:02;-17520.03;;;13.36;55.46
15193;BME280;7697;51.630;7.484;2024-03-08T14:33:08;-17514.84;;;13.21;54.71
15193;BME280;7697;51.630;7.484;2024-03-08T14:38:10;-17510.47;;;13.07;55.21
15193;BME280;7697;51.630;7.484;2024-03-08T14:43:13;-17508.97;;;13.03;56.05
15193;BME280;7697;51.630;7.484;2024-03-08T14:48:16;-17506.44;;;12.95;55.69
15193;BME280;7697;51.630;7.484;2024-03-08T14:53:18;-17504.94;;;12.91;55.69
15193;BME280;7697;51.630;7.484;2024-03-08T14:58:20;-17502.41;;;12.83;56.24
15193;BME280;7697;51.630;7.484;2024-03-08T15:03:23;-17502.06;;;12.82;56.62
15193;BME280;7697;51.630;7.484;2024-03-08T15:08:26;-17505.59;;;12.93;56.33
15193;BME280;7697;51.630;7.484;2024-03-08T15:13:29;-17502.91;;;12.85;57.06
15193;BME280;7697;51.630;7.484;2024-03-08T15:18:40;-17522.03;;;13.42;55.23
15193;BME280;7697;51.630;7.484;2024-03-08T15:23:46;-17502.75;;;12.84;57.12
15193;BME280;7697;51.630;7.484;2024-03-08T15:28:52;-17495.88;;;12.63;56.41
15193;BME280;7697;51.630;7.484;2024-03-08T15:33:56;-17489.16;;;12.43;57.13
15193;BME280;7697;51.630;7.484;2024-03-08T15:39:00;-17483.44;;;12.26;57.89
15193;BME280;7697;51.630;7.484;2024-03-08T15:44:17;-17482.28;;;12.22;57.94
15193;BME280;7697;51.630;7.484;2024-03-08T15:49:19;-17477.09;;;12.07;58.83
15193;BME280;7697;51.630;7.484;2024-03-08T15:54:21;-17476.06;;;12.03;60.06
15193;BME280;7697;51.630;7.484;2024-03-08T15:59:24;-17475.06;;;12.00;59.74
15193;BME280;7697;51.630;7.484;2024-03-08T16:04:27;-17474.56;;;11.99;60.82
15193;BME280;7697;51.630;7.484;2024-03-08T16:09:30;-17470.38;;;11.86;60.27
15193;BME280;7697;51.630;7.484;2024-03-08T16:14:36;-17466.50;;;11.75;59.76
15193;BME280;7697;51.630;7.484;2024-03-08T16:19:38;-17465.66;;;11.72;59.61
15193;BME280;7697;51.630;7.484;2024-03-08T16:24:43;-17463.66;;;11.66;59.34
15193;BME280;7697;51.630;7.484;2024-03-08T16:29:46;-17459.28;;;11.53;60.01
15193;BME280;7697;51.630;7.484;2024-03-08T16:34:48;-17455.09;;;11.40;59.95
15193;BME280;7697;51.630;7.484;2024-03-08T16:39:51;-17453.25;;;11.35;59.86
15193;BME280;7697;51.630;7.484;2024-03-08T16:44:55;-17446.22;;;11.13;60.72
15193;BME280;7697;51.630;7.484;2024-03-08T16:49:56;-17445.03;;;11.10;61.18
15193;BME280;7697;51.630;7.484;2024-03-08T16:54:58;-17439.66;;;10.94;61.46
15193;BME280;7697;51.630;7.484;2024-03-08T17:00:03;-17437.47;;;10.87;61.59
15193;BME280;7697;51.630;7.484;2024-03-08T17:05:05;-17434.13;;;10.77;61.93
15193;BME280;7697;51.630;7.484;2024-03-08T17:10:09;-17432.44;;;10.72;62.35
15193;BME280;7697;51.630;7.484;2024-03-08T17:15:17;-17427.59;;;10.57;62.63
15193;BME280;7697;51.630;7.484;2024-03-08T17:20:19;-17425.91;;;10.52;62.90
15193;BME280;7697;51.630;7.484;2024-03-08T17:25:22;-17422.38;;;10.41;63.50
15193;BME280;7697;51.630;7.484;2024-03-08T17:30:27;-17418.69;;;10.30;64.24
15193;BME280;7697;51.630;7.484;2024-03-08T17:35:31;-17416.19;;;10.23;64.82
15193;BME280;7697;51.630;7.484;2024-03-08T17:40:34;-17412.97;;;10.13;65.39
15193;BME280;7697;51.630;7.484;2024-03-08T17:45:40;-17409.97;;;10.04;66.36
15193;BME280;7697;51.630;7.484;2024-03-08T17:50:45;-17407.44;;;9.96;66.24
15193;BME280;7697;51.630;7.484;2024-03-08T17:55:46;-17402.59;;;9.82;67.01
15193;BME280;7697;51.630;7.484;2024-03-08T18:00:52;-17398.22;;;9.68;67.27
15193;BME280;7697;51.630;7.484;2024-03-08T18:05:54;-17396.22;;;9.62;67.70
15193;BME280;7697;51.630;7.484;2024-03-08T18:10:55;-17392.69;;;9.52;68.32
15193;BME280;7697;51.630;7.484;2024-03-08T18:15:58;-17389.84;;;9.43;68.64
15193;BME280;7697;51.630;7.484;2024-03-08T18:21:00;-17388.16;;;9.38;69.41
15193;BME280;7697;51.630;7.484;2024-03-08T18:26:05;-17384.81;;;9.28;69.20
15193;BME280;7697;51.630;7.484;2024-03-08T18:31:09;-17382.63;;;9.21;69.89
15193;BME280;7697;51.630;7.484;2024-03-08T18:36:11;-17378.78;;;9.10;70.63
15193;BME280;7697;51.630;7.484;2024-03-08T18:41:15;-17377.09;;;9.04;70.68
15193;BME280;7697;51.630;7.484;2024-03-08T18:46:18;-17374.41;;;8.96;70.96
15193;BME280;7697;51.630;7.484;2024-03-08T18:51:20;-17371.72;;;8.88;70.88
15193;BME280;7697;51.630;7.484;2024-03-08T18:56:21;-17369.72;;;8.82;71.46
15193;BME280;7697;51.630;7.484;2024-03-08T19:01:24;-17368.69;;;8.79;71.69
15193;BME280;7697;51.630;7.484;2024-03-08T19:06:30;-17365.84;;;8.71;72.03
15193;BME280;7697;51.630;7.484;2024-03-08T19:11:33;-17364.00;;;8.65;72.21
15193;BME280;7697;51.630;7.484;2024-03-08T19:16:38;-17363.66;;;8.64;73.00
15193;BME280;7697;51.630;7.484;2024-03-08T19:21:42;-17362.31;;;8.60;72.80
15193;BME280;7697;51.630;7.484;2024-03-08T19:26:45;-17361.16;;;8.56;73.08
15193;BME280;7697;51.630;7.484;2024-03-08T19:31:49;-17358.66;;;8.49;73.23
15193;BME280;7697;51.630;7.484;2024-03-08T19:36:50;-17358.31;;;8.48;73.50
15193;BME280;7697;51.630;7.484;2024-03-08T19:41:53;-17354.28;;;8.36;73.94
15193;BME280;7697;51.630;7.484;2024-03-08T19:52:26;-17351.25;;;8.26;73.90
15193;BME280;7697;51.630;7.484;2024-03-08T19:57:28;-17348.75;;;8.19;74.69
15193;BME280;7697;51.630;7.484;2024-03-08T20:02:30;-17347.41;;;8.15;75.42
15193;BME280;7697;51.630;7.484;2024-03-08T20:07:33;-17346.22;;;8.11;75.26
15193;BME280;7697;51.630;7.484;2024-03-08T20:12:35;-17343.88;;;8.04;74.77
15193;BME280;7697;51.630;7.484;2024-03-08T20:17:39;-17341.19;;;7.96;76.35
15193;BME280;7697;51.630;7.484;2024-03-08T20:22:42;-17339.00;;;7.89;76.42
15193;BME280;7697;51.630;7.484;2024-03-08T20:27:46;-17338.50;;;7.88;76.63
15193;BME280;7697;51.630;7.484;2024-03-08T20:32:52;-17337.00;;;7.83;76.74
15193;BME280;7697;51.630;7.484;2024-03-08T20:37:57;-17334.16;;;7.75;77.88
15193;BME280;7697;51.630;7.484;2024-03-08T20:42:59;-17332.13;;;7.69;77.60
15193;BME280;7697;51.630;7.484;2024-03-08T20:48:03;-17330.97;;;7.65;77.84
15193;BME280;7697;51.630;7.484;2024-03-08T20:53:07;-17328.44;;;7.58;78.04
15193;BME280;7697;51.630;7.484;2024-03-08T20:58:11;-17328.13;;;7.57;78.55
15193;BME280;7697;51.630;7.484;2024-03-08T21:03:14;-17327.59;;;7.55;79.42
15193;BME280;7697;51.630;7.484;2024-03-08T21:08:20;-17326.78;;;7.52;79.03
15193;BME280;7697;51.630;7.484;2024-03-08T21:13:27;-17324.59;;;7.46;78.96
15193;BME280;7697;51.630;7.484;2024-03-08T21:18:28;-17323.09;;;7.41;79.18
15193;BME280;7697;51.630;7.484;2024-03-08T21:23:31;-17321.06;;;7.35;79.36
15193;BME280;7697;51.630;7.484;2024-03-08T21:28:33;-17318.22;;;7.27;80.11
15193;BME280;7697;51.630;7.484;2024-03-08T21:33:35;-17316.53;;;7.22;80.69
15193;BME280;7697;51.630;7.484;2024-03-08T21:38:39;-17314.69;;;7.16;80.50
15193;BME280;7697;51.630;7.484;2024-03-08T21:43:40;-17313.84;;;7.13;80.70
15193;BME280;7697;51.630;7.484;2024-03-08T21:48:42;-17313.03;;;7.11;81.02
15193;BME280;7697;51.630;7.484;2024-03-08T21:53:46;-17312.19;;;7.08;81.60
15193;BME280;7697;51.630;7.484;2024-03-08T21:58:48;-17310.34;;;7.03;81.37
15193;BME280;7697;51.630;7.484;2024-03-08T22:03:49;-17307.81;;;6.95;82.56
15193;BME280;7697;51.630;7.484;2024-03-08T22:08:52;-17307.16;;;6.93;82.06
15193;BME280;7697;51.630;7.484;2024-03-08T22:13:54;-17305.97;;;6.90;82.16
15193;BME280;7697;51.630;7.484;2024-03-08T22:18:56;-17304.31;;;6.85;81.96
15193;BME280;7697;51.630;7.484;2024-03-08T22:23:59;-17302.97;;;6.81;82.83
15193;BME280;7697;51.630;7.484;2024-03-08T22:29:01;-17301.13;;;6.75;83.10
15193;BME280;7697;51.630;7.484;2024-03-08T22:34:03;-17300.28;;;6.72;83.33
15193;BME280;7697;51.630;7.484;2024-03-08T22:39:07;-17300.28;;;6.72;82.89
15193;BME280;7697;51.630;7.484;2024-03-08T22:44:10;-17298.59;;;6.67;82.69
15193;BME280;7697;51.630;7.484;2024-03-08T22:49:12;-17297.25;;;6.63;82.94
15193;BME280;7697;51.630;7.484;2024-03-08T22:54:15;-17295.25;;;6.57;83.94
15193;BME280;7697;51.630;7.484;2024-03-08T22:59:21;-17292.22;;;6.48;84.25
15193;BME280;7697;51.630;7.484;2024-03-08T23:04:23;-17290.72;;;6.44;83.83
15193;BME280;7697;51.630;7.484;2024-03-08T23:09:26;-17287.19;;;6.33;84.59
15193;BME280;7697;51.630;7.484;2024-03-08T23:14:28;-17285.19;;;6.27;84.25
15193;BME280;7697;51.630;7.484;2024-03-08T23:19:30;-17282.50;;;6.19;85.44
15193;BME280;7697;51.630;7.484;2024-03-08T23:24:36;-17281.16;;;6.15;85.83
15193;BME280;7697;51.630;7.484;2024-03-08T23:29:38;-17279.47;;;6.10;85.94
15193;BME280;7697;51.630;7.484;2024-03-08T23:34:40;-17276.28;;;6.00;86.05
15193;BME280;7697;51.630;7.484;2024-03-08T23:39:43;-17276.81;;;6.01;86.22
15193;BME280;7697;51.630;7.484;2024-03-08T23:44:44;-17274.78;;;5.95;86.81
15193;BME280;7697;51.630;7.484;2024-03-08T23:49:46;-17274.97;;;5.96;86.51
15193;BME280;7697;51.630;7.484;2024-03-08T23:54:54;-17273.13;;;5.90;87.32
15193;BME280;7697;51.630;7.484;2024-03-08T23:59:56;-17271.09;;;5.84;87.46
